sensor_id;sensor_type;location;lat;lon;timestamp;P1;durP1;ratioP1;P2;durP2;ratioP2
58553;SDS011;48119;53.218;6.576;2022-09-21T00:01:06;12.25;;;6.72;;
58553;SDS011;48119;53.218;6.576;2022-09-21T00:03:34;13.63;;;5.45;;
58553;SDS011;48119;53.218;6.576;2022-09-21T00:06:02;10.10;;;5.18;;
58553;SDS011;48119;53.218;6.576;2022-09-21T00:08:29;12.25;;;5.90;;
58553;SDS011;48119;53.218;6.576;2022-09-21T00:10:55;8.40;;;5.25;;
58553;SDS011;48119;53.218;6.576;2022-09-21T00:13:21;11.20;;;5.13;;
58553;SDS011;48119;53.218;6.576;2022-09-21T00:15:47;11.32;;;4.95;;
58553;SDS011;48119;53.218;6.576;2022-09-21T00:18:13;10.88;;;5.60;;
58553;SDS011;48119;53.218;6.576;2022-09-21T00:20:40;12.63;;;5.78;;
58553;SDS011;48119;53.218;6.576;2022-09-21T00:23:09;9.65;;;3.85;;
58553;SDS011;48119;53.218;6.576;2022-09-21T00:25:35;7.07;;;4.25;;
58553;SDS011;48119;53.218;6.576;2022-09-21T00:28:00;8.35;;;3.45;;
58553;SDS011;48119;53.218;6.576;2022-09-21T00:30:26;7.10;;;3.35;;
58553;SDS011;48119;53.218;6.576;2022-09-21T00:32:52;8.52;;;3.35;;
58553;SDS011;48119;53.218;6.576;2022-09-21T00:35:18;11.52;;;3.85;;
58553;SDS011;48119;53.218;6.576;2022-09-21T00:37:44;8.65;;;4.20;;
58553;SDS011;48119;53.218;6.576;2022-09-21T00:40:10;8.98;;;3.30;;
58553;SDS011;48119;53.218;6.576;2022-09-21T00:42:36;10.35;;;3.63;;
58553;SDS011;48119;53.218;6.576;2022-09-21T00:45:02;11.48;;;3.63;;
58553;SDS011;48119;53.218;6.576;2022-09-21T00:49:58;8.65;;;4.53;;
58553;SDS011;48119;53.218;6.576;2022-09-21T00:52:27;6.93;;;3.53;;
58553;SDS011;48119;53.218;6.576;2022-09-21T00:54:57;8.15;;;3.35;;
58553;SDS011;48119;53.218;6.576;2022-09-21T00:57:29;10.82;;;3.47;;
58553;SDS011;48119;53.218;6.576;2022-09-21T00:59:57;9.30;;;4.40;;
58553;SDS011;48119;53.218;6.576;2022-09-21T01:02:26;8.52;;;4.07;;
58553;SDS011;48119;53.218;6.576;2022-09-21T01:04:52;9.02;;;3.70;;
58553;SDS011;48119;53.218;6.576;2022-09-21T01:07:24;5.22;;;2.97;;
58553;SDS011;48119;53.218;6.576;2022-09-21T01:09:54;7.57;;;3.28;;
58553;SDS011;48119;53.218;6.576;2022-09-21T01:25:59;8.05;;;3.92;;
58553;SDS011;48119;53.218;6.576;2022-09-21T01:31:19;8.25;;;4.03;;
58553;SDS011;48119;53.218;6.576;2022-09-21T01:33:50;6.90;;;3.13;;
58553;SDS011;48119;53.218;6.576;2022-09-21T01:36:21;6.15;;;3.10;;
58553;SDS011;48119;53.218;6.576;2022-09-21T01:38:57;8.20;;;3.13;;
58553;SDS011;48119;53.218;6.576;2022-09-21T01:41:33;6.90;;;3.05;;
58553;SDS011;48119;53.218;6.576;2022-09-21T01:44:03;14.82;;;4.10;;
58553;SDS011;48119;53.218;6.576;2022-09-21T01:46:33;7.90;;;3.42;;
58553;SDS011;48119;53.218;6.576;2022-09-21T01:59:00;6.18;;;2.80;;
58553;SDS011;48119;53.218;6.576;2022-09-21T02:01:38;10.45;;;3.78;;
58553;SDS011;48119;53.218;6.576;2022-09-21T02:04:10;7.70;;;4.05;;
58553;SDS011;48119;53.218;6.576;2022-09-21T02:06:41;8.27;;;3.13;;
58553;SDS011;48119;53.218;6.576;2022-09-21T02:09:09;5.57;;;3.30;;
58553;SDS011;48119;53.218;6.576;2022-09-21T02:11:35;5.90;;;2.80;;
58553;SDS011;48119;53.218;6.576;2022-09-21T02:14:02;8.18;;;3.10;;
58553;SDS011;48119;53.218;6.576;2022-09-21T02:24:07;10.65;;;2.92;;
58553;SDS011;48119;53.218;6.576;2022-09-21T02:26:49;8.13;;;3.00;;
58553;SDS011;48119;53.218;6.576;2022-09-21T02:29:26;5.40;;;2.58;;
58553;SDS011;48119;53.218;6.576;2022-09-21T02:31:59;7.35;;;3.33;;
58553;SDS011;48119;53.218;6.576;2022-09-21T02:34:38;7.70;;;3.03;;
58553;SDS011;48119;53.218;6.576;2022-09-21T02:37:29;4.97;;;2.42;;
58553;SDS011;48119;53.218;6.576;2022-09-21T02:42:55;6.40;;;2.63;;
58553;SDS011;48119;53.218;6.576;2022-09-21T02:45:50;9.70;;;2.78;;
58553;SDS011;48119;53.218;6.576;2022-09-21T02:48:46;5.40;;;2.33;;
58553;SDS011;48119;53.218;6.576;2022-09-21T02:51:21;6.22;;;2.72;;
58553;SDS011;48119;53.218;6.576;2022-09-21T02:53:58;8.43;;;3.05;;
58553;SDS011;48119;53.218;6.576;2022-09-21T02:56:27;3.35;;;2.17;;
58553;SDS011;48119;53.218;6.576;2022-09-21T02:58:55;7.78;;;2.88;;
58553;SDS011;48119;53.218;6.576;2022-09-21T03:01:25;4.50;;;2.08;;
58553;SDS011;48119;53.218;6.576;2022-09-21T03:03:51;5.13;;;2.70;;
58553;SDS011;48119;53.218;6.576;2022-09-21T03:06:17;5.05;;;2.63;;
58553;SDS011;48119;53.218;6.576;2022-09-21T03:08:43;6.70;;;2.83;;
58553;SDS011;48119;53.218;6.576;2022-09-21T03:11:09;5.25;;;2.42;;
58553;SDS011;48119;53.218;6.576;2022-09-21T03:13:35;3.50;;;2.08;;
58553;SDS011;48119;53.218;6.576;2022-09-21T03:16:02;6.30;;;2.85;;
58553;SDS011;48119;53.218;6.576;2022-09-21T03:18:30;7.05;;;2.28;;
58553;SDS011;48119;53.218;6.576;2022-09-21T03:20:56;8.20;;;2.45;;
58553;SDS011;48119;53.218;6.576;2022-09-21T03:23:22;9.77;;;3.28;;
58553;SDS011;48119;53.218;6.576;2022-09-21T03:25:48;4.65;;;2.33;;
58553;SDS011;48119;53.218;6.576;2022-09-21T03:28:14;6.70;;;2.67;;
58553;SDS011;48119;53.218;6.576;2022-09-21T03:30:40;5.32;;;2.75;;
58553;SDS011;48119;53.218;6.576;2022-09-21T03:33:06;5.55;;;2.78;;
58553;SDS011;48119;53.218;6.576;2022-09-21T03:35:33;5.55;;;3.00;;
58553;SDS011;48119;53.218;6.576;2022-09-21T03:37:59;8.02;;;2.80;;
58553;SDS011;48119;53.218;6.576;2022-09-21T03:40:25;7.65;;;2.90;;
58553;SDS011;48119;53.218;6.576;2022-09-21T03:42:51;7.82;;;3.00;;
58553;SDS011;48119;53.218;6.576;2022-09-21T03:45:18;8.00;;;2.42;;
58553;SDS011;48119;53.218;6.576;2022-09-21T03:47:46;4.55;;;2.65;;
58553;SDS011;48119;53.218;6.576;2022-09-21T03:50:12;7.82;;;2.67;;
58553;SDS011;48119;53.218;6.576;2022-09-21T03:52:38;5.10;;;2.30;;
58553;SDS011;48119;53.218;6.576;2022-09-21T03:55:05;7.50;;;2.40;;
58553;SDS011;48119;53.218;6.576;2022-09-21T03:57:37;5.22;;;2.63;;
58553;SDS011;48119;53.218;6.576;2022-09-21T04:00:04;7.05;;;2.65;;
58553;SDS011;48119;53.218;6.576;2022-09-21T04:02:32;4.13;;;2.22;;
58553;SDS011;48119;53.218;6.576;2022-09-21T04:04:59;5.72;;;2.40;;
58553;SDS011;48119;53.218;6.576;2022-09-21T04:07:25;4.20;;;2.33;;
58553;SDS011;48119;53.218;6.576;2022-09-21T04:09:50;8.38;;;3.00;;
58553;SDS011;48119;53.218;6.576;2022-09-21T04:12:20;8.25;;;2.53;;
58553;SDS011;48119;53.218;6.576;2022-09-21T04:14:46;7.43;;;2.42;;
58553;SDS011;48119;53.218;6.576;2022-09-21T04:17:13;5.07;;;2.47;;
58553;SDS011;48119;53.218;6.576;2022-09-21T04:19:39;7.07;;;2.90;;
58553;SDS011;48119;53.218;6.576;2022-09-21T04:22:05;5.68;;;2.55;;
58553;SDS011;48119;53.218;6.576;2022-09-21T04:24:30;8.02;;;2.33;;
58553;SDS011;48119;53.218;6.576;2022-09-21T04:26:56;9.15;;;2.45;;
58553;SDS011;48119;53.218;6.576;2022-09-21T04:29:22;7.95;;;3.20;;
58553;SDS011;48119;53.218;6.576;2022-09-21T04:31:47;8.75;;;2.92;;
58553;SDS011;48119;53.218;6.576;2022-09-21T04:34:13;5.90;;;2.60;;
58553;SDS011;48119;53.218;6.576;2022-09-21T04:36:39;8.30;;;3.15;;
58553;SDS011;48119;53.218;6.576;2022-09-21T04:39:04;6.68;;;2.95;;
58553;SDS011;48119;53.218;6.576;2022-09-21T04:41:30;4.72;;;2.78;;
58553;SDS011;48119;53.218;6.576;2022-09-21T04:43:56;6.80;;;2.75;;
58553;SDS011;48119;53.218;6.576;2022-09-21T04:46:22;6.63;;;2.67;;
58553;SDS011;48119;53.218;6.576;2022-09-21T04:48:48;7.43;;;2.92;;
58553;SDS011;48119;53.218;6.576;2022-09-21T04:51:14;6.28;;;3.00;;
58553;SDS011;48119;53.218;6.576;2022-09-21T04:53:41;4.30;;;2.42;;
58553;SDS011;48119;53.218;6.576;2022-09-21T04:56:08;6.85;;;2.90;;
58553;SDS011;48119;53.218;6.576;2022-09-21T04:58:37;5.60;;;2.40;;
58553;SDS011;48119;53.218;6.576;2022-09-21T05:01:02;4.95;;;2.45;;
58553;SDS011;48119;53.218;6.576;2022-09-21T05:03:30;4.70;;;2.50;;
58553;SDS011;48119;53.218;6.576;2022-09-21T05:05:56;5.72;;;2.53;;
58553;SDS011;48119;53.218;6.576;2022-09-21T05:08:22;10.38;;;2.55;;
58553;SDS011;48119;53.218;6.576;2022-09-21T05:11:09;5.95;;;2.50;;
58553;SDS011;48119;53.218;6.576;2022-09-21T05:13:37;10.48;;;2.55;;
58553;SDS011;48119;53.218;6.576;2022-09-21T05:16:04;8.23;;;2.78;;
58553;SDS011;48119;53.218;6.576;2022-09-21T05:18:29;4.53;;;2.58;;
58553;SDS011;48119;53.218;6.576;2022-09-21T05:20:59;7.43;;;2.50;;
58553;SDS011;48119;53.218;6.576;2022-09-21T05:23:26;5.45;;;1.98;;
58553;SDS011;48119;53.218;6.576;2022-09-21T05:25:54;7.68;;;2.53;;
58553;SDS011;48119;53.218;6.576;2022-09-21T05:28:20;5.70;;;1.85;;
58553;SDS011;48119;53.218;6.576;2022-09-21T05:30:55;6.30;;;2.70;;
58553;SDS011;48119;53.218;6.576;2022-09-21T05:33:25;5.10;;;2.35;;
58553;SDS011;48119;53.218;6.576;2022-09-21T05:38:44;6.15;;;2.72;;
58553;SDS011;48119;53.218;6.576;2022-09-21T05:41:10;5.57;;;2.40;;
58553;SDS011;48119;53.218;6.576;2022-09-21T05:43:36;8.60;;;2.40;;
58553;SDS011;48119;53.218;6.576;2022-09-21T05:46:04;7.85;;;2.47;;
58553;SDS011;48119;53.218;6.576;2022-09-21T05:48:39;8.38;;;2.92;;
58553;SDS011;48119;53.218;6.576;2022-09-21T05:51:16;5.63;;;2.30;;
58553;SDS011;48119;53.218;6.576;2022-09-21T05:54:20;5.32;;;2.47;;
58553;SDS011;48119;53.218;6.576;2022-09-21T06:05:39;10.23;;;2.75;;
58553;SDS011;48119;53.218;6.576;2022-09-21T06:08:07;7.05;;;2.80;;
58553;SDS011;48119;53.218;6.576;2022-09-21T06:10:33;8.98;;;2.88;;
58553;SDS011;48119;53.218;6.576;2022-09-21T06:12:59;10.82;;;3.00;;
58553;SDS011;48119;53.218;6.576;2022-09-21T06:15:26;8.00;;;2.75;;
58553;SDS011;48119;53.218;6.576;2022-09-21T06:17:52;6.25;;;3.00;;
58553;SDS011;48119;53.218;6.576;2022-09-21T06:20:17;4.35;;;2.20;;
58553;SDS011;48119;53.218;6.576;2022-09-21T06:22:43;8.35;;;3.22;;
58553;SDS011;48119;53.218;6.576;2022-09-21T06:25:09;9.55;;;3.17;;
58553;SDS011;48119;53.218;6.576;2022-09-21T06:27:34;5.80;;;3.20;;
58553;SDS011;48119;53.218;6.576;2022-09-21T06:30:00;7.35;;;2.55;;
58553;SDS011;48119;53.218;6.576;2022-09-21T06:32:26;17.52;;;3.10;;
58553;SDS011;48119;53.218;6.576;2022-09-21T06:34:52;8.00;;;3.08;;
58553;SDS011;48119;53.218;6.576;2022-09-21T06:37:18;7.72;;;2.72;;
58553;SDS011;48119;53.218;6.576;2022-09-21T06:39:44;8.07;;;3.10;;
58553;SDS011;48119;53.218;6.576;2022-09-21T06:42:09;6.93;;;2.90;;
58553;SDS011;48119;53.218;6.576;2022-09-21T06:44:35;10.18;;;3.28;;
58553;SDS011;48119;53.218;6.576;2022-09-21T06:47:01;10.63;;;2.85;;
58553;SDS011;48119;53.218;6.576;2022-09-21T06:49:27;9.70;;;3.70;;
58553;SDS011;48119;53.218;6.576;2022-09-21T06:51:53;10.82;;;3.63;;
58553;SDS011;48119;53.218;6.576;2022-09-21T06:54:19;8.55;;;3.47;;
58553;SDS011;48119;53.218;6.576;2022-09-21T06:56:46;8.88;;;3.22;;
58553;SDS011;48119;53.218;6.576;2022-09-21T06:59:11;10.38;;;3.42;;
58553;SDS011;48119;53.218;6.576;2022-09-21T07:01:37;7.53;;;3.28;;
58553;SDS011;48119;53.218;6.576;2022-09-21T07:04:03;7.97;;;2.92;;
58553;SDS011;48119;53.218;6.576;2022-09-21T07:06:30;10.00;;;3.60;;
58553;SDS011;48119;53.218;6.576;2022-09-21T07:08:56;6.28;;;2.83;;
58553;SDS011;48119;53.218;6.576;2022-09-21T07:11:22;9.27;;;2.65;;
58553;SDS011;48119;53.218;6.576;2022-09-21T07:13:49;7.13;;;2.92;;
58553;SDS011;48119;53.218;6.576;2022-09-21T07:16:15;9.10;;;3.15;;
58553;SDS011;48119;53.218;6.576;2022-09-21T07:18:41;9.30;;;2.70;;
58553;SDS011;48119;53.218;6.576;2022-09-21T07:21:07;5.80;;;2.95;;
58553;SDS011;48119;53.218;6.576;2022-09-21T07:23:34;5.97;;;2.60;;
58553;SDS011;48119;53.218;6.576;2022-09-21T07:26:10;8.50;;;2.95;;
58553;SDS011;48119;53.218;6.576;2022-09-21T07:28:37;5.45;;;2.20;;
58553;SDS011;48119;53.218;6.576;2022-09-21T07:31:07;8.85;;;2.83;;
58553;SDS011;48119;53.218;6.576;2022-09-21T07:33:34;7.53;;;3.05;;
58553;SDS011;48119;53.218;6.576;2022-09-21T07:36:01;10.45;;;3.10;;
58553;SDS011;48119;53.218;6.576;2022-09-21T07:38:34;6.65;;;2.70;;
58553;SDS011;48119;53.218;6.576;2022-09-21T07:41:07;7.68;;;2.67;;
58553;SDS011;48119;53.218;6.576;2022-09-21T07:43:34;5.75;;;2.53;;
58553;SDS011;48119;53.218;6.576;2022-09-21T07:46:03;10.85;;;2.83;;
58553;SDS011;48119;53.218;6.576;2022-09-21T07:48:29;5.20;;;2.50;;
58553;SDS011;48119;53.218;6.576;2022-09-21T07:51:05;9.20;;;2.53;;
58553;SDS011;48119;53.218;6.576;2022-09-21T07:53:33;8.55;;;2.63;;
58553;SDS011;48119;53.218;6.576;2022-09-21T07:56:02;8.50;;;2.88;;
58553;SDS011;48119;53.218;6.576;2022-09-21T07:58:29;11.15;;;2.58;;
58553;SDS011;48119;53.218;6.576;2022-09-21T08:01:14;8.48;;;3.17;;
58553;SDS011;48119;53.218;6.576;2022-09-21T08:03:40;13.18;;;3.08;;
58553;SDS011;48119;53.218;6.576;2022-09-21T08:06:05;9.43;;;3.53;;
58553;SDS011;48119;53.218;6.576;2022-09-21T08:08:33;6.15;;;2.50;;
58553;SDS011;48119;53.218;6.576;2022-09-21T08:11:05;7.72;;;4.45;;
58553;SDS011;48119;53.218;6.576;2022-09-21T08:13:31;8.98;;;3.15;;
58553;SDS011;48119;53.218;6.576;2022-09-21T08:16:00;11.50;;;3.30;;
58553;SDS011;48119;53.218;6.576;2022-09-21T08:18:27;6.63;;;2.58;;
58553;SDS011;48119;53.218;6.576;2022-09-21T08:20:54;9.30;;;2.83;;
58553;SDS011;48119;53.218;6.576;2022-09-21T08:23:21;5.70;;;2.47;;
58553;SDS011;48119;53.218;6.576;2022-09-21T08:25:47;8.52;;;3.10;;
58553;SDS011;48119;53.218;6.576;2022-09-21T08:28:13;8.20;;;2.50;;
58553;SDS011;48119;53.218;6.576;2022-09-21T08:30:39;5.43;;;2.40;;
58553;SDS011;48119;53.218;6.576;2022-09-21T08:33:06;6.70;;;2.55;;
58553;SDS011;48119;53.218;6.576;2022-09-21T08:35:33;9.68;;;2.97;;
58553;SDS011;48119;53.218;6.576;2022-09-21T08:38:00;8.13;;;1.73;;
58553;SDS011;48119;53.218;6.576;2022-09-21T08:40:26;6.25;;;1.92;;
58553;SDS011;48119;53.218;6.576;2022-09-21T08:45:28;7.30;;;1.80;;
58553;SDS011;48119;53.218;6.576;2022-09-21T08:47:59;8.88;;;2.13;;
58553;SDS011;48119;53.218;6.576;2022-09-21T08:53:06;5.63;;;1.88;;
58553;SDS011;48119;53.218;6.576;2022-09-21T08:55:38;6.97;;;2.60;;
58553;SDS011;48119;53.218;6.576;2022-09-21T08:58:08;8.35;;;2.63;;
58553;SDS011;48119;53.218;6.576;2022-09-21T09:00:46;5.55;;;1.55;;
58553;SDS011;48119;53.218;6.576;2022-09-21T09:03:26;7.65;;;1.88;;
58553;SDS011;48119;53.218;6.576;2022-09-21T09:06:11;5.40;;;1.65;;
58553;SDS011;48119;53.218;6.576;2022-09-21T09:11:36;7.45;;;2.45;;
58553;SDS011;48119;53.218;6.576;2022-09-21T09:14:31;5.30;;;2.10;;
58553;SDS011;48119;53.218;6.576;2022-09-21T09:20:11;7.38;;;1.55;;
58553;SDS011;48119;53.218;6.576;2022-09-21T09:22:46;11.73;;;2.70;;
58553;SDS011;48119;53.218;6.576;2022-09-21T09:25:22;4.70;;;1.60;;
58553;SDS011;48119;53.218;6.576;2022-09-21T09:27:56;5.20;;;2.10;;
58553;SDS011;48119;53.218;6.576;2022-09-21T09:30:26;6.88;;;1.70;;
58553;SDS011;48119;53.218;6.576;2022-09-21T09:35:32;7.93;;;1.95;;
58553;SDS011;48119;53.218;6.576;2022-09-21T09:46:28;8.15;;;2.90;;
58553;SDS011;48119;53.218;6.576;2022-09-21T09:49:04;7.18;;;1.23;;
58553;SDS011;48119;53.218;6.576;2022-09-21T09:51:51;7.60;;;1.90;;
58553;SDS011;48119;53.218;6.576;2022-09-21T09:54:17;7.25;;;2.17;;
58553;SDS011;48119;53.218;6.576;2022-09-21T09:56:48;5.25;;;1.35;;
58553;SDS011;48119;53.218;6.576;2022-09-21T09:59:25;5.47;;;1.27;;
58553;SDS011;48119;53.218;6.576;2022-09-21T10:02:00;7.07;;;1.25;;
58553;SDS011;48119;53.218;6.576;2022-09-21T10:04:55;4.45;;;1.27;;
58553;SDS011;48119;53.218;6.576;2022-09-21T10:07:44;4.78;;;1.40;;
58553;SDS011;48119;53.218;6.576;2022-09-21T10:15:57;4.60;;;1.35;;
58553;SDS011;48119;53.218;6.576;2022-09-21T10:21:02;5.07;;;1.17;;
58553;SDS011;48119;53.218;6.576;2022-09-21T10:23:58;4.82;;;1.33;;
58553;SDS011;48119;53.218;6.576;2022-09-21T10:26:33;6.15;;;1.00;;
58553;SDS011;48119;53.218;6.576;2022-09-21T10:31:57;5.68;;;1.10;;
58553;SDS011;48119;53.218;6.576;2022-09-21T10:34:25;3.33;;;0.80;;
58553;SDS011;48119;53.218;6.576;2022-09-21T10:36:54;8.93;;;3.88;;
58553;SDS011;48119;53.218;6.576;2022-09-21T10:49:52;6.85;;;1.73;;
58553;SDS011;48119;53.218;6.576;2022-09-21T10:52:31;6.00;;;1.40;;
58553;SDS011;48119;53.218;6.576;2022-09-21T10:55:04;6.38;;;1.70;;
58553;SDS011;48119;53.218;6.576;2022-09-21T10:57:30;7.72;;;1.30;;
58553;SDS011;48119;53.218;6.576;2022-09-21T10:59:57;6.22;;;1.90;;
58553;SDS011;48119;53.218;6.576;2022-09-21T11:02:44;2.60;;;1.25;;
58553;SDS011;48119;53.218;6.576;2022-09-21T11:08:27;3.25;;;1.15;;
58553;SDS011;48119;53.218;6.576;2022-09-21T11:10:53;3.88;;;1.13;;
58553;SDS011;48119;53.218;6.576;2022-09-21T11:13:28;4.37;;;0.93;;
58553;SDS011;48119;53.218;6.576;2022-09-21T11:24:23;6.10;;;1.10;;
58553;SDS011;48119;53.218;6.576;2022-09-21T11:33:02;2.47;;;0.70;;
58553;SDS011;48119;53.218;6.576;2022-09-21T11:41:11;6.10;;;1.25;;
58553;SDS011;48119;53.218;6.576;2022-09-21T11:52:52;2.83;;;1.17;;
58553;SDS011;48119;53.218;6.576;2022-09-21T12:06:21;7.78;;;1.50;;
58553;SDS011;48119;53.218;6.576;2022-09-21T12:09:26;3.58;;;1.20;;
58553;SDS011;48119;53.218;6.576;2022-09-21T12:12:02;3.97;;;1.27;;
58553;SDS011;48119;53.218;6.576;2022-09-21T12:15:22;7.70;;;1.23;;
58553;SDS011;48119;53.218;6.576;2022-09-21T12:18:27;6.88;;;1.83;;
58553;SDS011;48119;53.218;6.576;2022-09-21T12:20:47;2.72;;;1.02;;
58553;SDS011;48119;53.218;6.576;2022-09-21T12:23:37;6.00;;;1.33;;
58553;SDS011;48119;53.218;6.576;2022-09-21T12:26:07;5.65;;;1.10;;
58553;SDS011;48119;53.218;6.576;2022-09-21T12:28:48;3.08;;;1.38;;
58553;SDS011;48119;53.218;6.576;2022-09-21T12:31:21;15.68;;;2.83;;
58553;SDS011;48119;53.218;6.576;2022-09-21T12:33:55;14.43;;;3.15;;
58553;SDS011;48119;53.218;6.576;2022-09-21T12:36:36;6.47;;;1.60;;
58553;SDS011;48119;53.218;6.576;2022-09-21T12:39:27;8.00;;;1.75;;
58553;SDS011;48119;53.218;6.576;2022-09-21T12:50:26;5.38;;;0.93;;
58553;SDS011;48119;53.218;6.576;2022-09-21T12:53:03;1.70;;;0.82;;
58553;SDS011;48119;53.218;6.576;2022-09-21T12:58:29;5.18;;;1.08;;
58553;SDS011;48119;53.218;6.576;2022-09-21T13:01:23;7.38;;;1.67;;
58553;SDS011;48119;53.218;6.576;2022-09-21T13:11:53;3.35;;;0.88;;
58553;SDS011;48119;53.218;6.576;2022-09-21T13:14:22;4.18;;;1.10;;
58553;SDS011;48119;53.218;6.576;2022-09-21T13:16:55;8.18;;;1.42;;
58553;SDS011;48119;53.218;6.576;2022-09-21T13:19:25;3.70;;;1.08;;
58553;SDS011;48119;53.218;6.576;2022-09-21T13:24:44;3.50;;;1.13;;
58553;SDS011;48119;53.218;6.576;2022-09-21T13:30:38;4.30;;;1.05;;
58553;SDS011;48119;53.218;6.576;2022-09-21T13:38:29;7.18;;;2.13;;
58553;SDS011;48119;53.218;6.576;2022-09-21T13:41:40;6.70;;;2.55;;
58553;SDS011;48119;53.218;6.576;2022-09-21T13:49:00;3.88;;;1.55;;
58553;SDS011;48119;53.218;6.576;2022-09-21T13:51:56;5.45;;;1.00;;
58553;SDS011;48119;53.218;6.576;2022-09-21T13:59:39;9.52;;;1.50;;
58553;SDS011;48119;53.218;6.576;2022-09-21T14:02:26;2.35;;;0.95;;
58553;SDS011;48119;53.218;6.576;2022-09-21T14:05:05;2.88;;;0.68;;
58553;SDS011;48119;53.218;6.576;2022-09-21T14:07:54;4.55;;;1.00;;
58553;SDS011;48119;53.218;6.576;2022-09-21T14:10:22;2.92;;;1.02;;
58553;SDS011;48119;53.218;6.576;2022-09-21T14:12:50;3.97;;;1.50;;
58553;SDS011;48119;53.218;6.576;2022-09-21T14:17:43;2.88;;;0.88;;
58553;SDS011;48119;53.218;6.576;2022-09-21T14:25:56;4.50;;;0.85;;
58553;SDS011;48119;53.218;6.576;2022-09-21T14:31:12;6.80;;;2.60;;
58553;SDS011;48119;53.218;6.576;2022-09-21T14:33:49;7.40;;;1.77;;
58553;SDS011;48119;53.218;6.576;2022-09-21T14:36:23;4.25;;;1.65;;
58553;SDS011;48119;53.218;6.576;2022-09-21T14:39:12;4.18;;;1.05;;
58553;SDS011;48119;53.218;6.576;2022-09-21T14:41:40;3.05;;;1.23;;
58553;SDS011;48119;53.218;6.576;2022-09-21T14:44:15;13.07;;;1.95;;
58553;SDS011;48119;53.218;6.576;2022-09-21T15:00:48;7.68;;;2.28;;
58553;SDS011;48119;53.218;6.576;2022-09-21T15:09:05;6.78;;;1.20;;
58553;SDS011;48119;53.218;6.576;2022-09-21T15:12:00;3.92;;;1.08;;
58553;SDS011;48119;53.218;6.576;2022-09-21T15:17:25;2.90;;;1.38;;
58553;SDS011;48119;53.218;6.576;2022-09-21T15:19:57;4.82;;;1.27;;
58553;SDS011;48119;53.218;6.576;2022-09-21T15:22:25;5.22;;;1.77;;
58553;SDS011;48119;53.218;6.576;2022-09-21T15:24:55;3.05;;;1.10;;
58553;SDS011;48119;53.218;6.576;2022-09-21T15:27:27;6.00;;;1.10;;
58553;SDS011;48119;53.218;6.576;2022-09-21T15:29:58;4.78;;;1.33;;
58553;SDS011;48119;53.218;6.576;2022-09-21T15:32:37;4.38;;;1.60;;
58553;SDS011;48119;53.218;6.576;2022-09-21T15:35:04;5.47;;;1.25;;
58553;SDS011;48119;53.218;6.576;2022-09-21T15:37:48;6.95;;;1.63;;
58553;SDS011;48119;53.218;6.576;2022-09-21T15:48:28;6.75;;;1.33;;
58553;SDS011;48119;53.218;6.576;2022-09-21T15:51:03;6.03;;;1.80;;
58553;SDS011;48119;53.218;6.576;2022-09-21T15:53:51;13.23;;;2.58;;
58553;SDS011;48119;53.218;6.576;2022-09-21T15:56:23;6.80;;;2.00;;
58553;SDS011;48119;53.218;6.576;2022-09-21T15:59:00;4.55;;;1.17;;
58553;SDS011;48119;53.218;6.576;2022-09-21T16:01:40;4.28;;;1.35;;
58553;SDS011;48119;53.218;6.576;2022-09-21T16:04:12;4.78;;;1.38;;
58553;SDS011;48119;53.218;6.576;2022-09-21T16:06:41;4.18;;;1.13;;
58553;SDS011;48119;53.218;6.576;2022-09-21T16:09:42;6.85;;;1.80;;
58553;SDS011;48119;53.218;6.576;2022-09-21T16:14:53;7.00;;;1.60;;
58553;SDS011;48119;53.218;6.576;2022-09-21T16:17:34;6.63;;;1.27;;
58553;SDS011;48119;53.218;6.576;2022-09-21T16:20:20;4.90;;;1.40;;
58553;SDS011;48119;53.218;6.576;2022-09-21T16:22:48;5.13;;;1.80;;
58553;SDS011;48119;53.218;6.576;2022-09-21T16:28:03;5.55;;;1.25;;
58553;SDS011;48119;53.218;6.576;2022-09-21T16:30:39;4.28;;;1.27;;
58553;SDS011;48119;53.218;6.576;2022-09-21T16:38:50;8.05;;;1.65;;
58553;SDS011;48119;53.218;6.576;2022-09-21T16:41:18;4.35;;;1.90;;
58553;SDS011;48119;53.218;6.576;2022-09-21T16:46:27;15.13;;;4.43;;
58553;SDS011;48119;53.218;6.576;2022-09-21T16:48:55;6.93;;;2.70;;
58553;SDS011;48119;53.218;6.576;2022-09-21T16:51:24;8.80;;;3.30;;
58553;SDS011;48119;53.218;6.576;2022-09-21T16:53:51;8.57;;;3.45;;
58553;SDS011;48119;53.218;6.576;2022-09-21T16:56:17;10.68;;;3.40;;
58553;SDS011;48119;53.218;6.576;2022-09-21T16:58:43;13.50;;;2.40;;
58553;SDS011;48119;53.218;6.576;2022-09-21T17:01:10;9.95;;;2.65;;
58553;SDS011;48119;53.218;6.576;2022-09-21T17:03:38;10.52;;;2.90;;
58553;SDS011;48119;53.218;6.576;2022-09-21T17:06:08;5.05;;;2.25;;
58553;SDS011;48119;53.218;6.576;2022-09-21T17:08:46;6.78;;;2.50;;
58553;SDS011;48119;53.218;6.576;2022-09-21T17:11:13;5.72;;;2.10;;
58553;SDS011;48119;53.218;6.576;2022-09-21T17:13:44;6.40;;;2.10;;
58553;SDS011;48119;53.218;6.576;2022-09-21T17:16:10;5.82;;;2.75;;
58553;SDS011;48119;53.218;6.576;2022-09-21T17:18:36;4.90;;;1.80;;
58553;SDS011;48119;53.218;6.576;2022-09-21T17:21:03;6.57;;;2.47;;
58553;SDS011;48119;53.218;6.576;2022-09-21T17:23:29;8.02;;;2.83;;
58553;SDS011;48119;53.218;6.576;2022-09-21T17:25:55;4.15;;;2.20;;
58553;SDS011;48119;53.218;6.576;2022-09-21T17:28:24;6.03;;;2.72;;
58553;SDS011;48119;53.218;6.576;2022-09-21T17:30:50;11.00;;;2.45;;
58553;SDS011;48119;53.218;6.576;2022-09-21T17:33:17;14.05;;;4.60;;
58553;SDS011;48119;53.218;6.576;2022-09-21T17:35:45;15.32;;;6.53;;
58553;SDS011;48119;53.218;6.576;2022-09-21T17:38:11;9.10;;;4.43;;
58553;SDS011;48119;53.218;6.576;2022-09-21T17:40:38;6.47;;;2.60;;
58553;SDS011;48119;53.218;6.576;2022-09-21T17:43:14;8.68;;;3.72;;
58553;SDS011;48119;53.218;6.576;2022-09-21T17:48:29;7.65;;;3.17;;
58553;SDS011;48119;53.218;6.576;2022-09-21T17:50:55;6.60;;;3.60;;
58553;SDS011;48119;53.218;6.576;2022-09-21T17:53:21;8.50;;;2.83;;
58553;SDS011;48119;53.218;6.576;2022-09-21T17:56:09;6.50;;;4.30;;
58553;SDS011;48119;53.218;6.576;2022-09-21T18:03:58;8.75;;;2.70;;
58553;SDS011;48119;53.218;6.576;2022-09-21T18:06:24;8.38;;;3.83;;
58553;SDS011;48119;53.218;6.576;2022-09-21T18:08:50;9.80;;;5.25;;
58553;SDS011;48119;53.218;6.576;2022-09-21T18:11:41;10.27;;;4.05;;
58553;SDS011;48119;53.218;6.576;2022-09-21T18:25:35;9.43;;;3.80;;
58553;SDS011;48119;53.218;6.576;2022-09-21T18:28:14;17.52;;;9.38;;
58553;SDS011;48119;53.218;6.576;2022-09-21T18:36:35;7.95;;;3.58;;
58553;SDS011;48119;53.218;6.576;2022-09-21T18:55:58;11.93;;;5.13;;
58553;SDS011;48119;53.218;6.576;2022-09-21T18:58:25;8.63;;;4.72;;
58553;SDS011;48119;53.218;6.576;2022-09-21T19:00:51;10.63;;;4.70;;
58553;SDS011;48119;53.218;6.576;2022-09-21T19:03:17;11.50;;;4.35;;
58553;SDS011;48119;53.218;6.576;2022-09-21T19:05:50;8.35;;;3.95;;
58553;SDS011;48119;53.218;6.576;2022-09-21T19:08:24;7.18;;;3.92;;
58553;SDS011;48119;53.218;6.576;2022-09-21T19:14:19;11.05;;;3.90;;
58553;SDS011;48119;53.218;6.576;2022-09-21T19:19:45;5.75;;;2.67;;
58553;SDS011;48119;53.218;6.576;2022-09-21T19:25:18;6.72;;;3.20;;
58553;SDS011;48119;53.218;6.576;2022-09-21T19:27:58;7.82;;;2.70;;
58553;SDS011;48119;53.218;6.576;2022-09-21T19:30:26;7.05;;;3.13;;
58553;SDS011;48119;53.218;6.576;2022-09-21T19:32:54;7.88;;;3.65;;
58553;SDS011;48119;53.218;6.576;2022-09-21T19:35:30;7.47;;;3.85;;
58553;SDS011;48119;53.218;6.576;2022-09-21T19:38:01;16.65;;;6.90;;
58553;SDS011;48119;53.218;6.576;2022-09-21T19:46:05;11.68;;;5.25;;
58553;SDS011;48119;53.218;6.576;2022-09-21T19:48:48;10.63;;;6.13;;
58553;SDS011;48119;53.218;6.576;2022-09-21T19:51:30;11.60;;;4.28;;
58553;SDS011;48119;53.218;6.576;2022-09-21T19:54:12;9.00;;;3.58;;
58553;SDS011;48119;53.218;6.576;2022-09-21T19:57:01;9.38;;;4.88;;
58553;SDS011;48119;53.218;6.576;2022-09-21T20:00:05;8.23;;;4.35;;
58553;SDS011;48119;53.218;6.576;2022-09-21T20:02:37;6.85;;;4.07;;